createdAt,value
2022-12-24T00:04:05.005Z,98261.06
2022-12-24T00:09:10.324Z,98171.72
2022-12-24T00:14:12.629Z,98320.78
2022-12-24T00:19:14.934Z,98221.91
2022-12-24T00:24:17.220Z,98194.97
2022-12-24T00:29:19.779Z,98247.06
2022-12-24T00:34:24.139Z,98276.63
2022-12-24T00:39:26.746Z,98298.09
2022-12-24T00:44:28.985Z,98276.28
2022-12-24T00:49:31.161Z,98325.03
2022-12-24T00:54:33.332Z,98305.09
2022-12-24T00:59:35.586Z,98318.03
2022-12-24T01:04:56.177Z,98286.75
2022-12-24T01:09:58.389Z,98270.38
2022-12-24T01:15:00.650Z,98288.66
2022-12-24T01:20:04.445Z,98314.72
2022-12-24T01:25:07.053Z,98278.28
2022-12-24T01:30:10.287Z,98286.75
2022-12-24T01:35:12.817Z,98276.34
2022-12-24T01:40:37.410Z,98268.56
2022-12-24T01:45:55.478Z,98320.72
2022-12-24T01:51:05.878Z,98245.09
2022-12-24T01:56:09.092Z,98284.09
2022-12-24T02:01:11.504Z,98271.97
2022-12-24T02:06:18.678Z,98329.00
2022-12-24T02:11:22.955Z,98297.81
2022-12-24T02:16:40.872Z,98349.03
2022-12-24T02:21:53.047Z,98356.69
2022-12-24T02:27:23.459Z,98347.28
2022-12-24T02:32:36.055Z,98280.34
2022-12-24T02:37:44.073Z,98358.41
2022-12-24T02:42:51.056Z,98315.06
2022-12-24T02:47:53.908Z,98307.25
2022-12-24T02:52:56.172Z,98323.78
2022-12-24T02:58:23.381Z,98346.53
2022-12-24T03:03:39.680Z,98316.97
2022-12-24T03:08:51.335Z,98317.78
2022-12-24T03:13:54.879Z,98346.38
2022-12-24T03:18:58.899Z,98288.31
2022-12-24T03:24:01.243Z,98289.22
2022-12-24T03:29:10.195Z,98315.31
2022-12-24T03:34:13.441Z,98306.56
2022-12-24T03:39:16.374Z,98317.88
2022-12-24T03:44:18.651Z,98277.94
2022-12-24T03:49:20.903Z,98292.63
2022-12-24T03:54:23.104Z,98275.22
2022-12-24T03:59:25.403Z,98305.66
2022-12-24T04:04:27.757Z,98288.25
2022-12-24T04:09:30.378Z,98310.75
2022-12-24T04:14:32.595Z,98292.63
2022-12-24T04:19:35.547Z,98227.47
2022-12-24T04:24:37.759Z,98284.09
2022-12-24T04:29:42.955Z,98205.13
2022-12-24T04:34:45.158Z,98256.44
2022-12-24T04:39:47.364Z,98186.97
2022-12-24T04:44:49.615Z,98272.91
2022-12-24T04:49:54.849Z,98263.34
2022-12-24T04:54:57.105Z,98248.53
2022-12-24T04:59:59.458Z,98240.72
2022-12-24T05:05:01.735Z,98273.63
2022-12-24T05:10:06.305Z,98247.75
2022-12-24T05:15:08.829Z,98266.00
2022-12-24T05:20:11.120Z,98249.56
2022-12-24T05:25:31.782Z,98299.03
2022-12-24T05:30:34.007Z,98221.81
2022-12-24T05:35:36.263Z,98235.69
2022-12-24T05:40:38.434Z,98247.91
2022-12-24T05:45:40.779Z,98224.50
2022-12-24T05:50:43.072Z,98269.47
2022-12-24T05:55:45.257Z,98231.44
2022-12-24T06:00:47.447Z,98232.34
2022-12-24T06:05:49.682Z,98268.75
2022-12-24T06:10:59.700Z,98287.88
2022-12-24T06:16:04.032Z,98246.13
2022-12-24T06:21:07.113Z,98254.88
2022-12-24T06:26:11.390Z,98249.63
2022-12-24T06:31:16.667Z,98192.38
2022-12-24T06:36:24.178Z,98191.59
2022-12-24T06:41:26.554Z,98253.28
2022-12-24T06:46:28.894Z,98236.91
2022-12-24T06:51:31.245Z,98224.72
2022-12-24T06:56:33.567Z,98261.06
2022-12-24T07:01:35.905Z,98234.84
2022-12-24T07:06:38.196Z,98251.59
2022-12-24T07:11:40.946Z,98268.16
2022-12-24T07:16:44.390Z,98244.66
2022-12-24T07:21:47.738Z,98264.63
2022-12-24T07:26:49.965Z,98228.16
2022-12-24T07:31:52.317Z,98228.97
2022-12-24T07:36:54.554Z,98253.22
2022-12-24T07:41:56.743Z,98248.00
2022-12-24T07:47:00.095Z,98114.47
2022-12-24T07:52:03.413Z,98208.19
2022-12-24T07:57:05.658Z,98231.53
2022-12-24T08:02:17.627Z,98282.69
2022-12-24T08:07:20.621Z,98261.84
2022-12-24T08:12:23.774Z,98253.97
2022-12-24T08:17:31.858Z,98274.69
2022-12-24T08:22:34.629Z,98236.47
2022-12-24T08:27:37.036Z,98170.66
2022-12-24T08:32:39.253Z,98269.41
2022-12-24T08:37:41.457Z,98206.25
2022-12-24T08:42:43.717Z,98274.72
2022-12-24T08:47:46.152Z,98188.88
2022-12-24T08:52:48.421Z,98135.06
2022-12-24T08:57:51.674Z,98252.94
2022-12-24T09:02:54.094Z,98187.97
2022-12-24T09:07:56.523Z,98247.06
2022-12-24T09:12:58.836Z,98257.38
2022-12-24T09:18:01.808Z,98150.75
2022-12-24T09:23:04.028Z,98078.91
2022-12-24T09:28:06.227Z,98183.81
2022-12-24T09:33:08.416Z,98209.84
2022-12-24T09:38:10.613Z,98195.97
2022-12-24T09:43:15.895Z,98095.28
2022-12-24T09:48:21.802Z,98224.56
2022-12-24T09:53:23.995Z,98252.41
2022-12-24T09:58:34.285Z,98253.28
2022-12-24T10:03:36.858Z,98215.69
2022-12-24T10:09:11.114Z,98255.78
2022-12-24T10:14:58.070Z,98225.31
2022-12-24T10:20:19.190Z,98223.69
2022-12-24T10:25:29.743Z,98207.13
2022-12-24T10:30:32.207Z,98228.81
2022-12-24T10:35:37.379Z,98192.34
2022-12-24T10:40:55.072Z,98203.81
2022-12-24T10:46:01.643Z,98256.53
2022-12-24T10:51:08.047Z,98221.81
2022-12-24T10:56:12.365Z,98258.25
2022-12-24T11:01:14.897Z,98204.25
2022-12-24T11:06:22.925Z,98205.16
2022-12-24T11:11:25.257Z,98235.50
2022-12-24T11:16:31.251Z,98276.22
2022-12-24T11:21:40.021Z,98283.09
2022-12-24T11:26:44.461Z,98292.47
2022-12-24T11:31:47.381Z,98238.56
2022-12-24T11:36:51.178Z,98259.34
2022-12-24T11:41:54.300Z,98285.41
2022-12-24T11:46:57.337Z,98213.31
2022-12-24T11:52:18.594Z,98288.81
2022-12-24T11:57:23.734Z,98300.66
2022-12-24T12:02:29.495Z,98322.50
2022-12-24T12:07:35.100Z,98298.94
2022-12-24T12:12:42.390Z,98329.25
2022-12-24T12:17:59.579Z,98272.75
2022-12-24T12:23:22.797Z,98307.38
2022-12-24T12:28:52.483Z,98365.53
2022-12-24T12:34:12.211Z,98354.22
2022-12-24T12:39:14.705Z,98342.69
2022-12-24T12:44:22.853Z,98383.47
2022-12-24T12:49:37.497Z,98389.50
2022-12-24T12:55:24.763Z,98320.06
2022-12-24T13:00:28.707Z,98344.13
2022-12-24T13:06:00.801Z,98398.91
2022-12-24T13:11:18.190Z,98401.47
2022-12-24T13:16:33.348Z,98419.50
2022-12-24T13:21:35.786Z,98382.84
2022-12-24T13:26:41.425Z,98371.50
2022-12-24T13:31:43.704Z,98390.47
2022-12-24T13:37:06.362Z,98443.59
2022-12-24T13:42:08.617Z,98436.47
2022-12-24T13:47:13.960Z,98453.88
2022-12-24T13:52:20.161Z,98392.00
2022-12-24T13:57:41.101Z,98464.19
2022-12-24T14:03:07.795Z,98484.88
2022-12-24T14:08:13.843Z,98473.44
2022-12-24T14:13:52.645Z,98490.06
2022-12-24T14:19:24.431Z,98462.97
2022-12-24T14:24:31.777Z,98475.63
2022-12-24T14:29:43.346Z,98524.22
2022-12-24T14:34:45.624Z,98505.75
2022-12-24T14:39:57.129Z,98499.63
2022-12-24T14:45:31.842Z,98488.56
2022-12-24T14:50:49.251Z,98553.53
2022-12-24T14:55:51.777Z,98541.41
2022-12-24T15:01:15.533Z,98557.75
2022-12-24T15:06:17.919Z,98534.03
2022-12-24T15:11:22.158Z,98570.63
2022-12-24T15:16:32.584Z,98548.81
2022-12-24T15:21:41.871Z,98546.97
2022-12-24T15:26:45.172Z,98559.94
2022-12-24T15:31:55.338Z,98538.28
2022-12-24T15:37:21.370Z,98600.88
2022-12-24T15:42:24.686Z,98578.00
2022-12-24T15:47:30.714Z,98550.25
2022-12-24T15:52:39.680Z,98572.78
2022-12-24T15:57:42.094Z,98557.06
2022-12-24T16:02:45.593Z,98556.94
2022-12-24T16:08:09.987Z,98637.78
2022-12-24T16:13:19.880Z,98540.13
2022-12-24T16:18:27.522Z,98643.63
2022-12-24T16:23:49.452Z,98631.28
2022-12-24T16:28:52.448Z,98633.53
2022-12-24T16:33:56.241Z,98633.53
2022-12-24T16:39:18.005Z,98678.69
2022-12-24T16:44:20.332Z,98670.72
2022-12-24T16:49:23.558Z,98655.81
2022-12-24T16:54:27.894Z,98660.88
2022-12-24T16:59:30.603Z,98636.25
2022-12-24T17:04:35.402Z,98691.13
2022-12-24T17:09:37.701Z,98664.16
2022-12-24T17:14:40.232Z,98722.31
2022-12-24T17:19:42.462Z,98674.13
2022-12-24T17:24:44.998Z,98701.72
2022-12-24T17:29:47.639Z,98693.88
2022-12-24T17:34:49.873Z,98699.03
2022-12-24T17:39:52.163Z,98720.66
2022-12-24T17:44:54.499Z,98703.91
2022-12-24T17:49:59.569Z,98728.34
2022-12-24T17:55:04.809Z,98757.50
2022-12-24T18:00:07.963Z,98724.09
2022-12-24T18:05:10.388Z,98698.59
2022-12-24T18:10:12.677Z,98793.44
2022-12-24T18:15:19.556Z,98764.50
2022-12-24T18:20:22.630Z,98819.66
2022-12-24T18:25:24.961Z,98806.13
2022-12-24T18:30:28.007Z,98824.38
2022-12-24T18:35:30.494Z,98839.81
2022-12-24T18:40:32.888Z,98834.50
2022-12-24T18:45:35.125Z,98805.44
2022-12-24T18:50:38.386Z,98791.38
2022-12-24T18:55:40.734Z,98848.78
2022-12-24T19:00:43.151Z,98865.78
2022-12-24T19:05:45.451Z,98873.63
2022-12-24T19:10:47.688Z,98857.72
2022-12-24T19:15:49.937Z,98876.63
2022-12-24T19:20:52.165Z,98924.66
2022-12-24T19:25:56.285Z,98914.88
2022-12-24T19:31:06.919Z,98909.53
2022-12-24T19:36:10.870Z,98947.72
2022-12-24T19:41:15.611Z,98891.94
2022-12-24T19:46:21.372Z,98922.25
2022-12-24T19:51:24.689Z,98962.34
2022-12-24T19:56:28.543Z,98958.00
2022-12-24T20:01:33.817Z,98968.31
2022-12-24T20:06:36.425Z,98955.03
2022-12-24T20:11:38.871Z,98899.75
2022-12-24T20:16:41.224Z,98990.38
2022-12-24T20:21:43.683Z,98927.53
2022-12-24T20:26:46.168Z,98981.69
2022-12-24T20:31:48.543Z,98963.81
2022-12-24T20:36:51.034Z,98976.72
2022-12-24T20:41:53.347Z,98900.47
2022-12-24T20:46:55.694Z,98989.50
2022-12-24T20:51:58.687Z,99006.00
2022-12-24T20:57:00.920Z,99033.97
2022-12-24T21:02:03.270Z,99031.91
2022-12-24T21:07:05.901Z,99028.16
2022-12-24T21:12:31.947Z,99063.88
2022-12-24T21:17:34.303Z,99041.06
2022-12-24T21:22:36.496Z,99011.53
2022-12-24T21:27:39.204Z,99004.19
2022-12-24T21:32:41.399Z,99064.41
2022-12-24T21:37:45.183Z,99074.38
2022-12-24T21:42:47.420Z,99034.94
2022-12-24T21:47:49.620Z,99111.56
2022-12-24T21:53:11.782Z,99102.66
2022-12-24T21:58:13.963Z,99076.00
2022-12-24T22:09:06.828Z,99117.47
2022-12-24T22:14:09.011Z,99112.75
2022-12-24T22:19:11.409Z,99123.56
2022-12-24T22:24:13.611Z,99103.13
2022-12-24T22:29:15.856Z,99124.00
2022-12-24T22:34:18.077Z,99166.59
2022-12-24T22:39:21.245Z,99140.91
2022-12-24T22:44:23.433Z,99165.31
2022-12-24T22:49:25.733Z,99175.41
2022-12-24T22:54:27.995Z,99178.00
2022-12-24T22:59:30.191Z,99157.53
2022-12-24T23:04:39.543Z,99178.31
2022-12-24T23:09:41.909Z,99134.97
2022-12-24T23:15:04.419Z,99195.00
2022-12-24T23:20:07.886Z,99224.75
2022-12-24T23:25:10.509Z,99248.03
2022-12-24T23:30:12.986Z,99179.72
2022-12-24T23:35:15.379Z,99181.81
2022-12-24T23:40:17.712Z,99170.28
2022-12-24T23:45:19.985Z,99229.22
2022-12-24T23:50:22.251Z,99165.88
2022-12-24T23:55:24.425Z,99249.66
